createdAt,value
2022-09-06T00:03:09.593Z,6.07
2022-09-06T00:08:09.389Z,4.97
2022-09-06T00:13:10.179Z,7.73
2022-09-06T00:18:08.942Z,4.40
2022-09-06T00:20:41.248Z,6.77
2022-09-06T00:25:41.327Z,7.00
2022-09-06T00:30:34.946Z,12.23
2022-09-06T00:33:01.615Z,4.87
2022-09-06T00:38:01.914Z,3.67
2022-09-06T00:40:30.283Z,4.87
2022-09-06T00:45:29.823Z,5.23
2022-09-06T00:47:59.418Z,6.23
2022-09-06T00:50:26.746Z,7.40
2022-09-06T00:52:54.019Z,8.00
2022-09-06T00:55:21.399Z,5.77
2022-09-06T00:57:51.293Z,5.73
2022-09-06T01:00:19.621Z,7.17
2022-09-06T01:02:46.912Z,5.87
2022-09-06T01:05:14.829Z,5.83
2022-09-06T01:07:51.330Z,4.70
2022-09-06T01:10:23.723Z,3.83
2022-09-06T01:13:12.042Z,4.57
2022-09-06T01:16:03.347Z,5.43
2022-09-06T01:18:56.095Z,4.87
2022-09-06T01:24:12.271Z,6.57
2022-09-06T01:29:59.841Z,6.20
2022-09-06T01:32:51.217Z,5.10
2022-09-06T01:35:59.324Z,4.47
2022-09-06T01:38:26.195Z,7.70
2022-09-06T01:40:53.043Z,4.57
2022-09-06T02:11:19.387Z,3.13
2022-09-06T02:34:39.411Z,2.73
2022-09-06T02:39:39.474Z,2.63
2022-09-06T02:57:18.882Z,6.43
2022-09-06T03:04:49.283Z,2.70
2022-09-06T03:12:18.847Z,2.43
2022-09-06T04:12:50.547Z,2.53
2022-09-06T04:15:17.208Z,2.30
2022-09-06T04:17:45.852Z,2.40
2022-09-06T04:20:16.470Z,2.40
2022-09-06T04:22:43.443Z,2.07
2022-09-06T04:25:10.525Z,2.17
2022-09-06T04:27:37.124Z,2.30
2022-09-06T04:30:04.211Z,2.20
2022-09-06T04:32:32.593Z,2.50
2022-09-06T04:34:59.150Z,2.33
2022-09-06T04:37:25.715Z,2.33
2022-09-06T04:39:52.343Z,1.77
2022-09-06T04:42:18.975Z,2.53
2022-09-06T04:44:45.559Z,2.67
2022-09-06T04:47:18.001Z,2.53
2022-09-06T04:49:45.562Z,2.00
2022-09-06T04:52:12.446Z,1.90
2022-09-06T04:54:39.206Z,2.10
2022-09-06T04:57:05.980Z,2.10
2022-09-06T04:59:32.774Z,2.40
2022-09-06T05:01:59.570Z,2.60
2022-09-06T05:04:26.520Z,2.00
2022-09-06T05:07:04.622Z,2.20
2022-09-06T05:09:32.222Z,2.20
2022-09-06T05:11:59.722Z,3.23
2022-09-06T05:14:27.868Z,2.40
2022-09-06T05:16:54.940Z,3.07
2022-09-06T05:19:21.791Z,2.40
2022-09-06T05:24:19.991Z,1.77
2022-09-06T05:26:46.627Z,2.63
2022-09-06T05:29:13.260Z,2.40
2022-09-06T05:31:40.074Z,2.47
2022-09-06T05:34:06.670Z,2.30
2022-09-06T05:36:33.353Z,2.67
2022-09-06T05:38:59.986Z,1.77
2022-09-06T05:41:27.535Z,2.60
2022-09-06T05:43:54.154Z,2.13
2022-09-06T05:46:21.222Z,2.03
2022-09-06T05:49:01.055Z,2.40
2022-09-06T05:51:27.718Z,2.20
2022-09-06T05:53:54.371Z,1.73
2022-09-06T05:56:22.194Z,2.23
2022-09-06T05:58:48.878Z,2.10
2022-09-06T06:01:21.178Z,2.23
2022-09-06T06:03:56.856Z,1.70
2022-09-06T06:06:25.003Z,1.70
2022-09-06T06:08:52.098Z,1.93
2022-09-06T06:11:19.220Z,1.97
2022-09-06T06:13:46.092Z,1.80
2022-09-06T06:16:14.967Z,2.30
2022-09-06T06:18:41.722Z,2.37
2022-09-06T06:21:12.638Z,2.30
2022-09-06T06:23:40.235Z,2.30
2022-09-06T06:26:07.694Z,2.13
2022-09-06T06:28:35.949Z,2.27
2022-09-06T06:31:06.788Z,2.20
2022-09-06T06:33:33.579Z,1.77
2022-09-06T06:36:04.218Z,2.20
2022-09-06T06:38:42.215Z,2.00
2022-09-06T06:41:11.955Z,2.07
2022-09-06T06:43:39.076Z,1.77
2022-09-06T06:48:46.255Z,1.93
2022-09-06T06:51:16.710Z,1.63
2022-09-06T06:53:44.616Z,1.67
2022-09-06T06:56:24.415Z,2.80
2022-09-06T06:58:53.238Z,1.77
2022-09-06T07:01:22.235Z,2.10
2022-09-06T07:03:49.591Z,2.07
2022-09-06T07:06:17.232Z,2.07
2022-09-06T07:08:44.173Z,2.07
2022-09-06T07:11:12.647Z,2.33
2022-09-06T07:13:39.551Z,2.63
2022-09-06T07:16:15.356Z,2.30
2022-09-06T07:18:43.479Z,2.13
2022-09-06T07:24:05.992Z,1.83
2022-09-06T07:26:34.075Z,2.27
2022-09-06T07:29:02.355Z,2.30
2022-09-06T07:34:17.850Z,2.17
2022-09-06T07:36:44.585Z,2.03
2022-09-06T07:39:11.199Z,2.27
2022-09-06T07:41:37.781Z,1.80
2022-09-06T07:44:04.367Z,2.47
2022-09-06T07:49:05.298Z,2.07
2022-09-06T07:51:32.008Z,2.13
2022-09-06T07:54:19.279Z,1.60
2022-09-06T07:56:45.823Z,1.73
2022-09-06T07:59:12.568Z,1.70
2022-09-06T08:01:40.796Z,1.73
2022-09-06T08:04:15.400Z,1.73
2022-09-06T08:09:32.238Z,2.03
2022-09-06T08:11:58.874Z,4.70
2022-09-06T08:14:25.465Z,5.57
2022-09-06T08:16:52.033Z,6.63
2022-09-06T08:19:18.763Z,4.07
2022-09-06T08:21:45.341Z,5.03
2022-09-06T08:29:15.059Z,2.90
2022-09-06T08:34:15.935Z,3.87
2022-09-06T08:39:15.041Z,3.63
2022-09-06T08:42:08.823Z,3.00
2022-09-06T08:47:20.571Z,4.10
2022-09-06T08:49:57.492Z,4.07
2022-09-06T08:52:29.144Z,4.17
2022-09-06T08:55:20.472Z,5.00
2022-09-06T08:58:17.068Z,4.60
2022-09-06T09:03:26.782Z,4.63
2022-09-06T09:11:07.402Z,3.77
2022-09-06T09:18:57.004Z,3.50
2022-09-06T09:21:30.155Z,3.33
2022-09-06T09:24:06.147Z,4.93
2022-09-06T09:29:17.041Z,3.80
2022-09-06T09:31:53.424Z,4.07
2022-09-06T09:34:35.170Z,4.23
2022-09-06T09:40:07.498Z,4.50
2022-09-06T09:42:36.660Z,6.00
2022-09-06T09:45:23.251Z,4.47
2022-09-06T09:47:49.853Z,3.77
2022-09-06T09:50:28.595Z,7.00
2022-09-06T09:52:55.615Z,3.50
2022-09-06T09:55:25.165Z,4.13
2022-09-06T09:57:54.181Z,4.47
2022-09-06T10:00:36.244Z,5.27
2022-09-06T10:03:15.914Z,4.53
2022-09-06T10:05:58.929Z,5.50
2022-09-06T10:08:32.199Z,4.50
2022-09-06T10:10:58.868Z,3.97
2022-09-06T10:13:29.430Z,4.43
2022-09-06T10:15:58.740Z,4.03
2022-09-06T10:21:23.946Z,4.60
2022-09-06T10:24:31.989Z,5.10
2022-09-06T10:27:02.699Z,4.13
2022-09-06T10:29:52.851Z,4.50
2022-09-06T10:32:34.456Z,4.60
2022-09-06T10:35:09.397Z,4.17
2022-09-06T10:37:49.669Z,4.00
2022-09-06T10:40:33.744Z,3.83
2022-09-06T10:43:01.375Z,4.23
2022-09-06T10:46:01.146Z,4.17
2022-09-06T10:48:31.026Z,4.97
2022-09-06T10:56:50.213Z,4.17
2022-09-06T11:02:47.463Z,4.20
2022-09-06T11:10:45.346Z,4.60
2022-09-06T11:13:17.504Z,5.93
2022-09-06T11:16:04.283Z,5.50
2022-09-06T11:18:55.795Z,4.73
2022-09-06T11:21:57.305Z,5.00
2022-09-06T11:24:36.974Z,4.37
2022-09-06T11:27:25.443Z,4.40
2022-09-06T11:29:56.508Z,5.03
2022-09-06T11:32:34.144Z,4.60
2022-09-06T11:35:11.027Z,6.30
2022-09-06T11:37:43.773Z,4.93
2022-09-06T11:40:28.182Z,5.10
2022-09-06T11:42:55.432Z,5.90
2022-09-06T11:45:46.066Z,4.93
2022-09-06T11:48:25.314Z,4.60
2022-09-06T11:50:59.980Z,4.40
2022-09-06T11:53:30.921Z,5.43
2022-09-06T11:56:00.581Z,4.90
2022-09-06T11:58:53.161Z,6.90
2022-09-06T12:01:20.721Z,4.57
2022-09-06T12:04:09.891Z,4.93
2022-09-06T12:07:04.103Z,5.57
2022-09-06T12:09:36.401Z,6.87
2022-09-06T12:12:04.114Z,6.10
2022-09-06T12:14:31.189Z,4.20
2022-09-06T12:38:18.543Z,3.83
2022-09-06T12:40:48.111Z,4.23
2022-09-06T12:43:17.048Z,4.87
2022-09-06T12:48:27.043Z,4.33
2022-09-06T12:51:09.231Z,3.93
2022-09-06T12:56:12.409Z,4.43
2022-09-06T12:58:39.605Z,4.53
2022-09-06T13:01:29.547Z,4.53
2022-09-06T13:09:20.582Z,5.33
2022-09-06T13:19:39.820Z,3.27
2022-09-06T13:22:11.090Z,3.40
2022-09-06T13:27:37.840Z,3.77
2022-09-06T13:30:09.089Z,3.40
2022-09-06T13:37:50.475Z,3.10
2022-09-06T13:40:53.774Z,2.80
2022-09-06T13:43:25.180Z,5.13
2022-09-06T13:46:07.707Z,4.23
2022-09-06T13:48:35.869Z,3.87
2022-09-06T13:51:07.738Z,3.30
2022-09-06T14:06:08.168Z,3.10
2022-09-06T14:11:03.285Z,3.63
2022-09-06T14:13:30.330Z,3.97
2022-09-06T14:15:57.271Z,4.63
2022-09-06T14:18:24.125Z,3.87
2022-09-06T14:20:59.033Z,3.07
2022-09-06T14:23:26.570Z,3.80
2022-09-06T14:25:57.561Z,2.90
2022-09-06T14:28:25.534Z,3.00
2022-09-06T14:30:53.100Z,3.10
2022-09-06T14:33:21.248Z,2.63
2022-09-06T14:35:48.883Z,2.90
2022-09-06T14:38:15.790Z,4.63
2022-09-06T14:40:44.173Z,2.90
2022-09-06T14:43:11.056Z,2.50
2022-09-06T14:45:38.023Z,3.53
2022-09-06T14:48:05.520Z,3.47
2022-09-06T14:50:32.435Z,4.23
2022-09-06T14:52:59.205Z,2.67
2022-09-06T14:55:28.054Z,3.47
2022-09-06T14:57:54.958Z,4.33
2022-09-06T15:02:49.301Z,3.03
2022-09-06T15:12:37.451Z,2.97
2022-09-06T15:24:57.903Z,4.23
2022-09-06T15:27:24.675Z,2.20
2022-09-06T15:52:09.405Z,3.70
2022-09-06T15:54:54.756Z,3.33
2022-09-06T16:07:09.763Z,2.27
2022-09-06T16:09:36.565Z,3.10
2022-09-06T16:12:03.571Z,2.30
2022-09-06T16:14:30.459Z,3.23
2022-09-06T16:16:57.460Z,2.73
2022-09-06T17:49:22.846Z,3.70
2022-09-06T17:51:49.803Z,5.13
2022-09-06T17:54:17.056Z,5.73
2022-09-06T18:01:47.295Z,3.33
2022-09-06T18:06:47.418Z,4.27
2022-09-06T18:09:17.364Z,4.87
2022-09-06T18:11:47.429Z,6.37
2022-09-06T18:14:17.246Z,3.83
2022-09-06T18:19:18.738Z,4.30
2022-09-06T18:24:18.403Z,3.33
2022-09-06T18:29:18.297Z,4.30
2022-09-06T18:36:48.573Z,5.57
2022-09-06T18:41:59.905Z,9.93
2022-09-06T18:44:32.401Z,9.60
2022-09-06T18:49:40.584Z,9.10
2022-09-06T18:52:10.147Z,10.10
2022-09-06T18:57:08.531Z,8.90
2022-09-06T19:04:38.302Z,7.17
2022-09-06T19:12:11.505Z,5.40
2022-09-06T19:14:38.247Z,6.73
2022-09-06T19:19:36.914Z,5.70
2022-09-06T19:27:07.807Z,4.27
2022-09-06T19:34:37.957Z,4.97
2022-09-06T19:37:04.648Z,4.17
2022-09-06T19:39:36.836Z,4.93
2022-09-06T19:42:04.364Z,4.87
2022-09-06T19:44:30.978Z,3.77
2022-09-06T19:46:59.729Z,3.30
2022-09-06T19:49:26.962Z,5.97
2022-09-06T19:59:28.386Z,3.03
2022-09-06T20:04:28.423Z,6.33
2022-09-06T20:11:58.162Z,4.03
2022-09-06T20:17:11.346Z,4.30
2022-09-06T20:19:44.848Z,5.00
2022-09-06T20:29:48.031Z,4.17
2022-09-06T20:37:17.707Z,3.43
2022-09-06T20:44:47.450Z,4.70
2022-09-06T20:52:17.927Z,5.60
2022-09-06T20:59:47.563Z,4.33
2022-09-06T21:07:17.462Z,5.03
2022-09-06T21:12:10.635Z,3.57
2022-09-06T21:14:37.231Z,4.07
2022-09-06T21:19:30.580Z,2.80
2022-09-06T21:21:57.215Z,3.93
2022-09-06T21:26:50.470Z,4.53
2022-09-06T21:29:17.067Z,4.00
2022-09-06T21:39:18.335Z,3.23
2022-09-06T21:44:17.335Z,4.47
2022-09-06T21:51:47.911Z,3.97
2022-09-06T21:59:18.118Z,2.40
2022-09-06T22:06:47.878Z,4.10
2022-09-06T22:14:17.683Z,5.17
2022-09-06T22:21:47.403Z,3.67
2022-09-06T22:26:47.472Z,3.70
2022-09-06T22:31:46.975Z,2.73
2022-09-06T22:41:48.365Z,2.60
2022-09-06T22:46:47.157Z,3.50
2022-09-06T23:01:47.607Z,6.67
2022-09-06T23:09:17.728Z,2.73
2022-09-06T23:16:47.925Z,2.43
2022-09-06T23:24:17.943Z,3.60
2022-09-06T23:31:48.084Z,3.70
2022-09-06T23:46:47.874Z,2.70
2022-09-06T23:54:17.843Z,2.97
